createdAt,value
2022-11-24T00:01:21.252Z,9.50
2022-11-24T00:03:55.945Z,9.50
2022-11-24T00:06:24.865Z,9.50
2022-11-24T00:08:53.628Z,9.50
2022-11-24T00:11:24.361Z,9.50
2022-11-24T00:13:53.348Z,9.50
2022-11-24T00:16:23.305Z,9.50
2022-11-24T00:18:55.078Z,9.50
2022-11-24T00:21:24.049Z,9.60
2022-11-24T00:23:53.096Z,9.60
2022-11-24T00:26:22.555Z,9.60
2022-11-24T00:28:53.732Z,9.60
2022-11-24T00:31:24.258Z,9.60
2022-11-24T00:33:56.101Z,9.60
2022-11-24T00:36:26.037Z,9.60
2022-11-24T00:38:55.829Z,9.60
2022-11-24T00:41:24.593Z,9.60
2022-11-24T00:43:52.870Z,9.60
2022-11-24T00:46:21.960Z,9.60
2022-11-24T00:48:50.277Z,9.60
2022-11-24T00:51:21.708Z,9.60
2022-11-24T00:53:49.950Z,9.60
2022-11-24T00:56:18.102Z,9.60
2022-11-24T00:58:46.781Z,9.60
2022-11-24T01:01:17.504Z,9.60
2022-11-24T01:03:47.098Z,9.50
2022-11-24T01:06:17.395Z,9.60
2022-11-24T01:08:47.550Z,9.50
2022-11-24T01:11:18.735Z,9.60
2022-11-24T01:13:49.366Z,9.50
2022-11-24T01:16:19.854Z,9.50
2022-11-24T01:18:48.501Z,9.50
2022-11-24T01:21:17.704Z,9.50
2022-11-24T01:23:47.548Z,9.50
2022-11-24T01:26:17.825Z,9.50
2022-11-24T01:28:47.508Z,9.50
2022-11-24T01:31:16.749Z,9.50
2022-11-24T01:33:45.136Z,9.40
2022-11-24T01:36:13.513Z,9.40
2022-11-24T01:38:41.827Z,9.40
2022-11-24T01:41:13.751Z,9.40
2022-11-24T01:43:42.508Z,9.40
2022-11-24T01:46:18.907Z,9.40
2022-11-24T01:48:50.518Z,9.40
2022-11-24T01:51:21.964Z,9.40
2022-11-24T01:53:56.097Z,9.40
2022-11-24T01:56:26.779Z,9.40
2022-11-24T01:58:58.508Z,9.30
2022-11-24T02:01:27.126Z,9.20
2022-11-24T02:03:55.494Z,9.30
2022-11-24T02:06:27.574Z,9.30
2022-11-24T02:09:01.324Z,9.30
2022-11-24T02:11:37.042Z,9.30
2022-11-24T02:14:06.321Z,9.30
2022-11-24T02:16:36.716Z,9.30
2022-11-24T02:19:08.243Z,9.40
2022-11-24T02:21:36.511Z,9.40
2022-11-24T02:24:09.596Z,9.40
2022-11-24T02:26:43.881Z,9.40
2022-11-24T02:29:13.979Z,9.40
2022-11-24T02:31:46.179Z,9.40
2022-11-24T02:34:14.392Z,9.40
2022-11-24T02:36:42.609Z,9.40
2022-11-24T02:39:13.244Z,9.40
2022-11-24T02:41:47.427Z,9.40
2022-11-24T02:44:17.606Z,9.40
2022-11-24T02:46:45.831Z,9.40
2022-11-24T02:49:14.119Z,9.40
2022-11-24T02:51:42.353Z,9.40
2022-11-24T02:54:10.633Z,9.40
2022-11-24T02:56:38.807Z,9.40
2022-11-24T02:59:08.459Z,9.40
2022-11-24T03:01:36.643Z,9.40
2022-11-24T03:04:05.057Z,9.40
2022-11-24T03:06:33.330Z,9.40
2022-11-24T03:09:01.688Z,9.40
2022-11-24T03:11:29.925Z,9.40
2022-11-24T03:13:58.169Z,9.40
2022-11-24T03:16:27.829Z,9.40
2022-11-24T03:18:56.223Z,9.40
2022-11-24T03:21:24.532Z,9.40
2022-11-24T03:23:53.944Z,9.40
2022-11-24T03:26:25.887Z,9.40
2022-11-24T03:28:56.226Z,9.40
2022-11-24T03:31:24.912Z,9.40
2022-11-24T03:33:54.556Z,9.40
2022-11-24T03:36:22.725Z,9.40
2022-11-24T03:38:51.097Z,9.50
2022-11-24T03:41:19.531Z,9.50
2022-11-24T03:43:47.824Z,9.50
2022-11-24T03:46:16.182Z,9.50
2022-11-24T03:48:44.588Z,9.50
2022-11-24T03:51:14.158Z,9.50
2022-11-24T03:53:42.568Z,9.50
2022-11-24T03:56:10.817Z,9.50
2022-11-24T03:58:39.031Z,9.50
2022-11-24T04:01:07.305Z,9.50
2022-11-24T04:03:35.595Z,9.50
2022-11-24T04:06:03.935Z,9.50
2022-11-24T04:08:33.625Z,9.60
2022-11-24T04:11:01.831Z,9.60
2022-11-24T04:13:29.269Z,9.50
2022-11-24T04:15:57.326Z,9.50
2022-11-24T04:18:25.403Z,9.50
2022-11-24T04:20:53.804Z,9.50
2022-11-24T04:23:21.742Z,9.50
2022-11-24T04:25:51.014Z,9.50
2022-11-24T04:28:19.001Z,9.50
2022-11-24T04:30:46.976Z,9.50
2022-11-24T04:33:15.491Z,9.50
2022-11-24T04:35:43.507Z,9.50
2022-11-24T04:38:11.487Z,9.50
2022-11-24T04:40:39.441Z,9.50
2022-11-24T04:43:08.936Z,9.50
2022-11-24T04:45:36.908Z,9.50
2022-11-24T04:48:05.321Z,9.50
2022-11-24T04:50:33.304Z,9.50
2022-11-24T04:53:01.233Z,9.50
2022-11-24T04:55:29.260Z,9.50
2022-11-24T04:57:57.272Z,9.50
2022-11-24T05:00:26.579Z,9.50
2022-11-24T05:02:54.486Z,9.50
2022-11-24T05:05:22.403Z,9.60
2022-11-24T05:07:50.337Z,9.60
2022-11-24T05:10:37.309Z,9.60
2022-11-24T05:13:07.795Z,9.60
2022-11-24T05:15:38.569Z,9.60
2022-11-24T05:18:07.569Z,9.60
2022-11-24T05:20:35.651Z,9.60
2022-11-24T05:23:04.867Z,9.60
2022-11-24T05:25:33.051Z,9.70
2022-11-24T05:28:02.183Z,9.70
2022-11-24T05:30:30.684Z,9.70
2022-11-24T05:33:00.172Z,9.60
2022-11-24T05:35:28.024Z,9.70
2022-11-24T05:37:55.912Z,9.70
2022-11-24T05:40:23.854Z,9.70
2022-11-24T05:42:51.931Z,9.70
2022-11-24T05:45:21.816Z,9.70
2022-11-24T05:47:51.185Z,9.70
2022-11-24T05:50:23.357Z,9.60
2022-11-24T05:52:51.643Z,9.60
2022-11-24T05:55:20.766Z,9.60
2022-11-24T05:57:48.615Z,9.60
2022-11-24T06:00:20.005Z,9.70
2022-11-24T06:02:48.286Z,9.70
2022-11-24T06:05:16.534Z,9.70
2022-11-24T06:07:46.107Z,9.60
2022-11-24T06:10:14.213Z,9.60
2022-11-24T06:12:42.148Z,9.60
2022-11-24T06:15:11.254Z,9.60
2022-11-24T06:17:39.629Z,9.60
2022-11-24T06:20:09.484Z,9.60
2022-11-24T06:22:37.994Z,9.60
2022-11-24T06:25:07.832Z,9.60
2022-11-24T06:27:35.896Z,9.60
2022-11-24T06:30:04.019Z,9.60
2022-11-24T06:32:31.943Z,9.60
2022-11-24T06:35:08.211Z,9.60
2022-11-24T06:37:42.878Z,9.60
2022-11-24T06:40:17.981Z,9.60
2022-11-24T06:45:42.040Z,9.60
2022-11-24T06:48:22.059Z,9.60
2022-11-24T06:50:57.257Z,9.60
2022-11-24T06:53:25.114Z,9.60
2022-11-24T06:55:54.594Z,9.60
2022-11-24T06:58:22.661Z,9.60
2022-11-24T07:00:50.521Z,9.60
2022-11-24T07:03:19.575Z,9.60
2022-11-24T07:05:47.638Z,9.60
2022-11-24T07:08:17.976Z,9.60
2022-11-24T07:10:46.097Z,9.60
2022-11-24T07:13:15.429Z,9.60
2022-11-24T07:15:43.377Z,9.60
2022-11-24T07:18:11.224Z,9.60
2022-11-24T07:20:39.203Z,9.70
2022-11-24T07:23:07.319Z,9.70
2022-11-24T07:25:35.187Z,9.70
2022-11-24T07:28:03.053Z,9.60
2022-11-24T07:30:32.376Z,9.60
2022-11-24T07:33:00.763Z,9.60
2022-11-24T07:35:28.783Z,9.70
2022-11-24T07:37:57.092Z,9.70
2022-11-24T07:40:25.990Z,9.70
2022-11-24T07:42:53.874Z,9.70
2022-11-24T07:45:22.248Z,9.70
2022-11-24T07:47:51.476Z,9.70
2022-11-24T07:50:19.495Z,9.70
2022-11-24T07:52:47.375Z,9.70
2022-11-24T07:55:15.452Z,9.70
2022-11-24T07:57:43.444Z,9.70
2022-11-24T08:00:12.906Z,9.70
2022-11-24T08:02:40.779Z,9.70
2022-11-24T08:05:10.346Z,9.70
2022-11-24T08:07:39.608Z,9.70
2022-11-24T08:10:08.672Z,9.70
2022-11-24T08:12:36.519Z,9.70
2022-11-24T08:15:09.522Z,9.70
2022-11-24T08:17:38.914Z,9.70
2022-11-24T08:20:09.928Z,9.80
2022-11-24T08:22:37.777Z,9.80
2022-11-24T08:25:06.177Z,9.80
2022-11-24T08:27:34.156Z,9.70
2022-11-24T08:30:02.068Z,9.70
2022-11-24T08:32:29.908Z,9.80
2022-11-24T08:35:13.016Z,9.80
2022-11-24T08:37:43.003Z,9.80
2022-11-24T08:40:12.454Z,9.80
2022-11-24T08:42:40.780Z,9.80
2022-11-24T08:45:20.310Z,9.80
2022-11-24T08:47:53.114Z,9.80
2022-11-24T08:50:21.039Z,9.80
2022-11-24T08:52:50.316Z,9.80
2022-11-24T08:55:18.286Z,9.80
2022-11-24T08:57:46.199Z,9.80
2022-11-24T09:00:22.122Z,9.80
2022-11-24T09:02:57.839Z,9.80
2022-11-24T09:05:51.289Z,9.80
2022-11-24T09:08:15.663Z,9.80
2022-11-24T09:10:44.000Z,9.80
2022-11-24T09:13:11.897Z,9.90
2022-11-24T09:15:39.869Z,9.90
2022-11-24T09:18:07.798Z,9.90
2022-11-24T09:20:35.907Z,9.90
2022-11-24T09:23:04.246Z,10.00
2022-11-24T09:25:33.466Z,10.00
2022-11-24T09:28:01.327Z,10.00
2022-11-24T09:30:29.569Z,10.00
2022-11-24T09:32:58.010Z,10.10
2022-11-24T09:35:25.952Z,10.10
2022-11-24T09:37:53.856Z,10.10
2022-11-24T09:40:23.364Z,10.10
2022-11-24T09:43:00.487Z,10.10
2022-11-24T09:46:05.168Z,10.10
2022-11-24T09:48:38.086Z,10.20
2022-11-24T09:51:07.085Z,10.20
2022-11-24T09:53:39.019Z,10.20
2022-11-24T09:56:17.624Z,10.20
2022-11-24T09:58:50.660Z,10.20
2022-11-24T10:01:20.932Z,10.30
2022-11-24T10:03:51.128Z,10.30
2022-11-24T10:06:25.262Z,10.30
2022-11-24T10:09:20.615Z,10.30
2022-11-24T10:11:59.709Z,10.30
2022-11-24T10:14:53.368Z,10.30
2022-11-24T10:17:34.113Z,10.30
2022-11-24T10:20:10.274Z,10.40
2022-11-24T10:22:52.626Z,10.40
2022-11-24T10:25:25.428Z,10.40
2022-11-24T10:28:00.324Z,10.50
2022-11-24T10:30:30.534Z,10.50
2022-11-24T10:33:03.095Z,10.60
2022-11-24T10:35:41.661Z,10.60
2022-11-24T10:38:17.573Z,10.60
2022-11-24T10:40:57.084Z,10.60
2022-11-24T10:43:28.051Z,10.70
2022-11-24T10:46:06.476Z,10.70
2022-11-24T10:48:41.503Z,10.70
2022-11-24T10:51:34.595Z,10.80
2022-11-24T10:54:07.088Z,10.70
2022-11-24T10:56:40.811Z,10.70
2022-11-24T10:59:32.829Z,10.80
2022-11-24T11:02:02.538Z,10.80
2022-11-24T11:04:32.459Z,10.80
2022-11-24T11:07:15.451Z,10.90
2022-11-24T11:09:43.339Z,10.90
2022-11-24T11:12:41.961Z,11.00
2022-11-24T11:15:26.462Z,11.10
2022-11-24T11:17:58.907Z,11.20
2022-11-24T11:20:30.880Z,11.20
2022-11-24T11:23:01.288Z,11.30
2022-11-24T11:25:32.968Z,11.30
2022-11-24T11:28:25.929Z,11.30
2022-11-24T11:34:03.626Z,11.40
2022-11-24T11:36:34.180Z,11.40
2022-11-24T11:39:03.890Z,11.40
2022-11-24T11:41:34.833Z,11.40
2022-11-24T11:44:12.669Z,11.40
2022-11-24T11:46:40.629Z,11.50
2022-11-24T11:49:12.516Z,11.60
2022-11-24T11:52:11.499Z,11.60
2022-11-24T11:55:03.850Z,11.60
2022-11-24T11:57:40.546Z,11.70
2022-11-24T12:00:13.818Z,11.70
2022-11-24T12:02:56.177Z,11.70
2022-11-24T12:05:32.560Z,11.70
2022-11-24T12:08:20.438Z,11.70
2022-11-24T12:10:55.366Z,11.80
2022-11-24T12:13:41.676Z,11.80
2022-11-24T12:16:31.885Z,11.80
2022-11-24T12:19:15.971Z,11.70
2022-11-24T12:21:53.165Z,11.80
2022-11-24T12:24:28.877Z,11.80
2022-11-24T12:27:01.087Z,11.90
2022-11-24T12:29:51.866Z,11.90
2022-11-24T12:32:33.438Z,12.00
2022-11-24T12:35:09.221Z,12.00
2022-11-24T12:37:53.825Z,12.00
2022-11-24T12:40:33.013Z,12.00
2022-11-24T12:43:08.982Z,12.00
2022-11-24T12:45:45.216Z,12.00
2022-11-24T12:48:33.811Z,12.10
2022-11-24T12:51:02.499Z,12.10
2022-11-24T12:53:34.716Z,12.10
2022-11-24T12:56:08.603Z,12.10
2022-11-24T12:58:42.718Z,12.10
2022-11-24T13:01:18.651Z,12.10
2022-11-24T13:03:58.041Z,12.10
2022-11-24T13:06:34.406Z,12.10
2022-11-24T13:09:10.372Z,12.10
2022-11-24T13:11:41.741Z,12.10
2022-11-24T13:14:19.211Z,12.10
2022-11-24T13:17:29.687Z,12.00
2022-11-24T13:19:47.127Z,12.10
2022-11-24T13:22:18.024Z,12.00
2022-11-24T13:24:52.312Z,12.00
2022-11-24T13:27:39.769Z,12.00
2022-11-24T13:30:49.987Z,12.00
2022-11-24T13:33:31.587Z,12.00
2022-11-24T13:36:30.922Z,11.90
2022-11-24T13:38:59.864Z,11.90
2022-11-24T13:42:08.189Z,11.90
2022-11-24T13:44:51.921Z,11.90
2022-11-24T13:47:35.274Z,11.90
2022-11-24T13:50:04.773Z,11.90
2022-11-24T13:52:46.175Z,11.90
2022-11-24T13:55:28.267Z,11.90
2022-11-24T13:58:00.349Z,11.90
2022-11-24T14:00:32.004Z,11.80
2022-11-24T14:03:03.424Z,11.80
2022-11-24T14:05:37.913Z,11.90
2022-11-24T14:08:09.453Z,11.90
2022-11-24T14:10:38.981Z,11.90
2022-11-24T14:13:34.157Z,11.80
2022-11-24T14:16:15.565Z,11.80
2022-11-24T14:18:44.938Z,11.80
2022-11-24T14:21:31.236Z,11.80
2022-11-24T14:24:01.556Z,11.80
2022-11-24T14:26:34.239Z,11.70
2022-11-24T14:29:15.278Z,11.80
2022-11-24T14:31:52.925Z,11.80
2022-11-24T14:34:23.089Z,11.80
2022-11-24T14:36:52.531Z,11.80
2022-11-24T14:39:23.220Z,11.70
2022-11-24T14:41:54.166Z,11.70
2022-11-24T14:44:25.423Z,11.70
2022-11-24T14:47:04.517Z,11.70
2022-11-24T14:49:34.786Z,11.70
2022-11-24T14:52:06.113Z,11.70
2022-11-24T14:54:34.291Z,11.70
2022-11-24T14:57:04.566Z,11.70
2022-11-24T14:59:34.553Z,11.70
2022-11-24T15:02:04.082Z,11.70
2022-11-24T15:05:03.957Z,11.70
2022-11-24T15:07:26.625Z,11.70
2022-11-24T15:09:58.002Z,11.70
2022-11-24T15:12:29.056Z,11.70
2022-11-24T15:15:00.265Z,11.70
2022-11-24T15:17:30.625Z,11.70
2022-11-24T15:20:01.869Z,11.70
2022-11-24T15:22:38.604Z,11.70
2022-11-24T15:25:31.155Z,11.70
2022-11-24T15:27:59.283Z,11.60
2022-11-24T15:30:27.634Z,11.60
2022-11-24T15:32:58.452Z,11.60
2022-11-24T15:35:27.378Z,11.60
2022-11-24T15:37:55.343Z,11.60
2022-11-24T15:40:23.447Z,11.60
2022-11-24T15:42:54.249Z,11.60
2022-11-24T15:45:23.891Z,11.60
2022-11-24T15:47:51.957Z,11.60
2022-11-24T15:50:21.660Z,11.60
2022-11-24T15:52:49.869Z,11.60
2022-11-24T15:55:20.855Z,11.60
2022-11-24T15:57:49.509Z,11.60
2022-11-24T16:00:19.510Z,11.60
2022-11-24T16:02:47.600Z,11.60
2022-11-24T16:05:16.555Z,11.60
2022-11-24T16:07:46.023Z,11.50
2022-11-24T16:10:22.648Z,11.40
2022-11-24T16:12:50.494Z,11.40
2022-11-24T16:15:18.367Z,11.30
2022-11-24T16:17:46.331Z,11.20
2022-11-24T16:20:14.984Z,11.20
2022-11-24T16:22:43.007Z,11.10
2022-11-24T16:25:12.852Z,11.10
2022-11-24T16:27:41.137Z,11.00
2022-11-24T16:30:11.868Z,10.90
2022-11-24T16:32:39.731Z,10.90
2022-11-24T16:35:08.067Z,10.90
2022-11-24T16:37:35.933Z,10.80
2022-11-24T16:40:04.279Z,10.80
2022-11-24T16:42:33.673Z,10.70
2022-11-24T16:45:01.643Z,10.80
2022-11-24T16:47:29.513Z,10.70
2022-11-24T16:49:57.404Z,10.70
2022-11-24T16:52:25.493Z,10.70
2022-11-24T16:54:53.358Z,10.70
2022-11-24T16:57:21.461Z,10.60
2022-11-24T16:59:50.812Z,10.60
2022-11-24T17:02:18.974Z,10.60
2022-11-24T17:04:46.889Z,10.60
2022-11-24T17:07:15.597Z,10.60
2022-11-24T17:09:43.481Z,10.50
2022-11-24T17:12:11.454Z,10.50
2022-11-24T17:14:39.427Z,10.50
2022-11-24T17:17:08.659Z,10.50
2022-11-24T17:19:37.538Z,10.50
2022-11-24T17:22:05.439Z,10.40
2022-11-24T17:24:33.656Z,10.40
2022-11-24T17:27:01.980Z,10.40
2022-11-24T17:29:30.068Z,10.40
2022-11-24T17:31:58.149Z,10.40
2022-11-24T17:34:27.362Z,10.40
2022-11-24T17:36:55.331Z,10.40
2022-11-24T17:39:25.192Z,10.40
2022-11-24T17:41:53.109Z,10.30
2022-11-24T17:44:21.021Z,10.40
2022-11-24T17:46:48.949Z,10.40
2022-11-24T17:49:16.786Z,10.30
2022-11-24T17:51:50.417Z,10.30
2022-11-24T17:54:48.523Z,10.40
2022-11-24T17:57:06.541Z,10.40
2022-11-24T17:59:34.433Z,10.30
2022-11-24T18:02:02.381Z,10.30
2022-11-24T18:04:30.324Z,10.30
2022-11-24T18:06:59.597Z,10.30
2022-11-24T18:09:27.471Z,10.30
2022-11-24T18:11:55.398Z,10.30
2022-11-24T18:14:23.304Z,10.30
2022-11-24T18:16:51.262Z,10.30
2022-11-24T18:19:19.309Z,10.30
2022-11-24T18:21:47.190Z,10.30
2022-11-24T18:24:19.781Z,10.30
2022-11-24T18:26:51.848Z,10.30
2022-11-24T18:29:20.064Z,10.30
2022-11-24T18:31:48.004Z,10.30
2022-11-24T18:34:15.960Z,10.20
2022-11-24T18:36:45.108Z,10.30
2022-11-24T18:39:17.828Z,10.20
2022-11-24T18:41:47.666Z,10.20
2022-11-24T18:44:15.601Z,10.30
2022-11-24T18:46:43.553Z,10.20
2022-11-24T18:49:11.449Z,10.30
2022-11-24T18:51:39.307Z,10.20
2022-11-24T18:54:07.214Z,10.20
2022-11-24T18:56:35.180Z,10.20
2022-11-24T18:59:04.396Z,10.20
2022-11-24T19:01:32.821Z,10.20
2022-11-24T19:04:02.859Z,10.20
2022-11-24T19:06:33.061Z,10.20
2022-11-24T19:09:02.472Z,10.20
2022-11-24T19:11:33.736Z,10.10
2022-11-24T19:14:02.584Z,10.10
2022-11-24T19:16:31.992Z,10.10
2022-11-24T19:19:00.376Z,10.10
2022-11-24T19:21:28.696Z,10.00
2022-11-24T19:24:02.914Z,10.00
2022-11-24T19:26:32.721Z,10.00
2022-11-24T19:29:00.681Z,9.90
2022-11-24T19:31:28.684Z,9.90
2022-11-24T19:33:59.742Z,9.90
2022-11-24T19:36:27.844Z,9.90
2022-11-24T19:38:57.517Z,9.90
2022-11-24T19:41:27.664Z,9.80
2022-11-24T19:43:56.650Z,9.80
2022-11-24T19:46:27.287Z,9.80
2022-11-24T19:48:57.192Z,9.80
2022-11-24T19:51:30.600Z,9.80
2022-11-24T19:53:58.702Z,9.70
2022-11-24T19:56:28.006Z,9.70
2022-11-24T19:58:56.693Z,9.70
2022-11-24T20:01:26.655Z,9.70
2022-11-24T20:03:59.220Z,9.70
2022-11-24T20:06:29.771Z,9.70
2022-11-24T20:08:59.053Z,9.70
2022-11-24T20:11:27.406Z,9.70
2022-11-24T20:13:55.927Z,9.60
2022-11-24T20:16:28.145Z,9.60
2022-11-24T20:18:58.289Z,9.60
2022-11-24T20:21:31.163Z,9.60
2022-11-24T20:24:01.221Z,9.60
2022-11-24T20:26:31.465Z,9.60
2022-11-24T20:29:00.511Z,9.60
2022-11-24T20:31:30.650Z,9.60
2022-11-24T20:34:00.184Z,9.60
2022-11-24T20:36:31.578Z,9.60
2022-11-24T20:39:01.428Z,9.60
2022-11-24T20:41:33.813Z,9.60
2022-11-24T20:44:03.864Z,9.60
2022-11-24T20:46:34.396Z,9.60
2022-11-24T20:49:03.852Z,9.60
2022-11-24T20:51:35.206Z,9.60
2022-11-24T20:54:05.278Z,9.60
2022-11-24T20:56:35.256Z,9.60
2022-11-24T20:59:03.513Z,9.60
2022-11-24T21:01:34.901Z,9.60
2022-11-24T21:04:03.710Z,9.60
2022-11-24T21:06:33.066Z,9.60
2022-11-24T21:09:03.944Z,9.60
2022-11-24T21:11:32.742Z,9.60
2022-11-24T21:14:01.038Z,9.70
2022-11-24T21:16:30.529Z,9.70
2022-11-24T21:19:00.311Z,9.70
2022-11-24T21:21:33.807Z,9.70
2022-11-24T21:24:03.459Z,9.70
2022-11-24T21:26:31.516Z,9.70
2022-11-24T21:28:59.481Z,9.70
2022-11-24T21:31:27.412Z,9.80
2022-11-24T21:33:55.573Z,9.80
2022-11-24T21:36:25.640Z,9.70
2022-11-24T21:38:54.999Z,9.80
2022-11-24T21:41:25.818Z,9.70
2022-11-24T21:43:55.580Z,9.80
2022-11-24T21:46:23.865Z,9.80
2022-11-24T21:48:52.195Z,9.80
2022-11-24T21:51:22.001Z,9.80
2022-11-24T21:53:50.098Z,9.80
2022-11-24T21:56:20.535Z,9.80
2022-11-24T21:58:51.771Z,9.80
2022-11-24T22:01:21.658Z,9.80
2022-11-24T22:03:49.830Z,9.80
2022-11-24T22:06:19.234Z,9.80
2022-11-24T22:08:47.935Z,9.80
2022-11-24T22:11:17.853Z,9.80
2022-11-24T22:13:46.651Z,9.80
2022-11-24T22:16:17.611Z,9.80
2022-11-24T22:18:46.434Z,9.80
2022-11-24T22:21:16.851Z,9.80
2022-11-24T22:23:45.277Z,9.80
2022-11-24T22:26:14.549Z,9.80
2022-11-24T22:28:43.453Z,9.80
2022-11-24T22:31:13.635Z,9.80
2022-11-24T22:33:43.693Z,9.80
2022-11-24T22:36:12.947Z,9.80
2022-11-24T22:38:41.430Z,9.70
2022-11-24T22:41:11.095Z,9.70
2022-11-24T22:43:40.695Z,9.70
2022-11-24T22:46:11.968Z,9.70
2022-11-24T22:48:40.564Z,9.70
2022-11-24T22:51:12.490Z,9.70
2022-11-24T22:53:40.912Z,9.70
2022-11-24T22:56:10.579Z,9.70
2022-11-24T22:58:39.157Z,9.70
2022-11-24T23:01:08.010Z,9.70
2022-11-24T23:03:36.577Z,9.80
2022-11-24T23:06:06.225Z,9.80
2022-11-24T23:08:36.784Z,9.80
2022-11-24T23:11:07.102Z,9.80
2022-11-24T23:13:35.122Z,9.80
2022-11-24T23:16:04.547Z,9.90
2022-11-24T23:18:32.761Z,9.90
2022-11-24T23:21:07.142Z,9.90
2022-11-24T23:23:36.369Z,9.90
2022-11-24T23:26:06.074Z,9.90
2022-11-24T23:28:34.047Z,9.90
2022-11-24T23:31:02.824Z,9.90
2022-11-24T23:33:30.962Z,9.90
2022-11-24T23:36:01.522Z,10.00
2022-11-24T23:38:32.472Z,10.00
2022-11-24T23:41:04.459Z,10.00
2022-11-24T23:43:32.701Z,10.00
2022-11-24T23:46:05.263Z,10.00
2022-11-24T23:48:34.050Z,10.00
2022-11-24T23:51:06.166Z,10.00
2022-11-24T23:53:34.225Z,10.00
2022-11-24T23:56:04.473Z,10.00
2022-11-24T23:58:33.091Z,10.00
